Terminal Aerodrome Forecast
Issued by NWS

Home | Current Version | Previous Version | Graphics & Text | Print | Product List | Glossary Off
Versions: 1 2 3 4 5 6 7 8 9 10 11 12 13 14

000
FTUS43 KIWX 062300
TAFSBN
TAF
KSBN 062325Z 0700/0724 21011KT P6SM SCT100 BKN250
     FM071400 22014G22KT P6SM SCT030 BKN250
     FM072100 27014KT P6SM BKN020=

USA.gov is the U.S. government's official web portal to all federal, state and local government web resources and services.